LiveATC.Net - Listen to live air traffic control over the Internet!


ICAO: KANE  IATA: ANE   Airport: Anoka County-Blaine Airport (Janes Field)
City: Minneapolis   State/Province: Minnesota
Country: United States   Continent: North America
KANE METAR Weather: KANE 190855Z AUTO 32012KT 10SM OVC037 02/M04 A2992 RMK AO2
KANE Flight Activity (FlightAware)
KANE Airport Info   (iFlightPlanner)
KANE VFR Sectional Chart   (iFlightPlanner) 
KANE IFR Low Chart   (iFlightPlanner) 

KANE Twr/CTAF
Feed Status: UP   Listeners: 0
Listen in your browser - HTML5 player (in browser, HTML5)
Click here to listen with your own player (launches your MP3 player)
Archive Access: KANE Twr/CTAF
FacilityFrequency
Anoka Tower/CTAF132.400

NOTICE

Unauthorized use prohibited. See LiveATC.net Terms of Service


Airport/ARTCC Code
Frequency Search
(e.g., 124.400, 128.75)
Site-wide search
 


Browse Feeds
Top 50 Feeds
HF Oceanic Feeds
Coverage Map
Bad Weather Areas

LiveATC FAQ
Offer LiveATC feed
Contact LiveATC.net
Press Inquiries

LiveATC on iPhone
LiveATC on Android

Windows Phone
Windows 8/10

LiveATC Mobile
(Mobile browser)

ATC Audio Archives
Interesting Recordings

LiveATC Forums


Home Page
About LiveATC.net
Make a Donation
Terms of Use
Privacy Policy

Canadian Air Freqs

AIRMETs/SIGMETs

FAA Airport Status
Nat'l Airspace Status
Arrival Demand Charts


Server Software By:
Icecast.org
Liquidsoap